createdAt,value
2022-10-08T00:01:14.691Z,6.27
2022-10-08T00:03:45.397Z,6.30
2022-10-08T00:06:17.993Z,6.73
2022-10-08T00:08:49.796Z,6.43
2022-10-08T00:11:20.476Z,6.10
2022-10-08T00:13:51.402Z,6.50
2022-10-08T00:16:20.817Z,7.27
2022-10-08T00:18:49.541Z,7.50
2022-10-08T00:21:20.721Z,9.30
2022-10-08T00:23:49.251Z,9.90
2022-10-08T00:26:18.114Z,8.80
2022-10-08T00:28:47.273Z,7.40
2022-10-08T00:31:24.662Z,7.33
2022-10-08T00:33:56.577Z,6.97
2022-10-08T00:36:26.146Z,7.13
2022-10-08T00:39:08.219Z,6.50
2022-10-08T00:41:38.742Z,6.50
2022-10-08T00:44:43.401Z,6.50
2022-10-08T00:47:39.303Z,6.37
2022-10-08T00:50:14.728Z,6.67
2022-10-08T00:53:07.845Z,6.00
2022-10-08T00:55:38.824Z,6.43
2022-10-08T00:58:20.812Z,6.73
2022-10-08T01:00:48.271Z,6.63
2022-10-08T01:03:15.208Z,6.30
2022-10-08T01:06:02.801Z,6.47
2022-10-08T01:08:47.603Z,6.90
2022-10-08T01:11:29.569Z,6.67
2022-10-08T01:14:07.783Z,6.50
2022-10-08T01:17:03.741Z,6.77
2022-10-08T01:19:40.869Z,6.60
2022-10-08T01:22:43.065Z,6.13
2022-10-08T01:25:33.698Z,6.37
2022-10-08T01:28:25.199Z,6.13
2022-10-08T01:31:05.525Z,6.63
2022-10-08T01:33:45.471Z,6.43
2022-10-08T01:36:14.878Z,6.17
2022-10-08T01:38:45.903Z,6.77
2022-10-08T01:41:16.733Z,7.17
2022-10-08T01:43:51.485Z,7.27
2022-10-08T01:46:23.661Z,6.77
2022-10-08T01:48:53.799Z,7.57
2022-10-08T01:51:35.209Z,6.70
2022-10-08T01:54:05.807Z,7.37
2022-10-08T01:56:34.671Z,7.37
2022-10-08T01:59:14.680Z,7.00
2022-10-08T02:01:52.184Z,7.70
2022-10-08T02:04:37.604Z,7.60
2022-10-08T02:07:18.227Z,7.87
2022-10-08T02:10:10.038Z,7.10
2022-10-08T02:12:39.526Z,7.10
2022-10-08T02:15:09.180Z,7.60
2022-10-08T02:17:54.526Z,7.70
2022-10-08T02:20:26.263Z,7.50
2022-10-08T02:23:04.520Z,7.63
2022-10-08T02:25:57.592Z,8.00
2022-10-08T02:28:37.143Z,7.90
2022-10-08T02:31:13.457Z,8.00
2022-10-08T02:33:44.594Z,8.17
2022-10-08T02:36:14.830Z,8.27
2022-10-08T02:38:51.196Z,8.07
2022-10-08T02:41:21.823Z,7.57
2022-10-08T02:43:50.905Z,8.43
2022-10-08T02:46:21.530Z,8.57
2022-10-08T02:48:59.651Z,8.90
2022-10-08T02:51:28.033Z,8.57
2022-10-08T02:53:55.167Z,8.00
2022-10-08T02:56:41.495Z,8.30
2022-10-08T02:59:10.714Z,8.10
2022-10-08T03:01:55.715Z,8.67
2022-10-08T03:04:25.673Z,9.17
2022-10-08T03:06:54.887Z,8.67
2022-10-08T03:09:23.472Z,9.30
2022-10-08T03:11:51.783Z,9.23
2022-10-08T03:14:20.565Z,9.10
2022-10-08T03:16:48.299Z,9.13
2022-10-08T03:19:17.712Z,8.60
2022-10-08T03:21:47.068Z,9.47
2022-10-08T03:24:14.616Z,9.17
2022-10-08T03:26:41.842Z,9.40
2022-10-08T03:29:09.530Z,9.97
2022-10-08T03:31:36.636Z,9.60
2022-10-08T03:34:04.153Z,9.47
2022-10-08T03:36:31.406Z,9.47
2022-10-08T03:38:58.406Z,9.40
2022-10-08T03:41:25.544Z,9.27
2022-10-08T03:43:52.584Z,9.47
2022-10-08T03:46:19.421Z,9.20
2022-10-08T03:48:49.779Z,9.33
2022-10-08T03:51:18.051Z,9.83
2022-10-08T03:53:45.612Z,9.40
2022-10-08T03:56:17.730Z,9.90
2022-10-08T03:58:45.250Z,9.70
2022-10-08T04:01:17.366Z,9.53
2022-10-08T04:03:47.765Z,9.53
2022-10-08T04:06:15.224Z,8.93
2022-10-08T04:08:42.233Z,9.70
2022-10-08T04:11:11.695Z,10.07
2022-10-08T04:13:38.910Z,10.00
2022-10-08T04:16:08.431Z,9.60
2022-10-08T04:18:35.322Z,9.87
2022-10-08T04:21:04.904Z,9.50
2022-10-08T04:23:33.635Z,9.67
2022-10-08T04:26:00.880Z,9.80
2022-10-08T04:28:28.309Z,9.53
2022-10-08T04:30:56.273Z,9.07
2022-10-08T04:33:23.486Z,9.43
2022-10-08T04:35:50.346Z,10.30
2022-10-08T04:38:17.287Z,10.03
2022-10-08T04:40:44.065Z,10.03
2022-10-08T04:43:10.961Z,9.50
2022-10-08T04:45:47.205Z,9.77
2022-10-08T04:48:13.971Z,10.43
2022-10-08T04:50:40.755Z,9.43
2022-10-08T04:53:07.637Z,9.50
2022-10-08T04:55:34.509Z,10.03
2022-10-08T04:58:01.397Z,9.53
2022-10-08T05:00:28.233Z,9.30
2022-10-08T05:02:55.038Z,9.27
2022-10-08T05:05:21.936Z,9.00
2022-10-08T05:07:48.792Z,9.40
2022-10-08T05:10:15.811Z,9.50
2022-10-08T05:12:42.593Z,9.43
2022-10-08T05:15:10.202Z,9.00
2022-10-08T05:17:36.976Z,9.53
2022-10-08T05:20:04.208Z,9.50
2022-10-08T05:22:30.951Z,8.77
2022-10-08T05:24:57.734Z,9.73
2022-10-08T05:27:24.598Z,8.60
2022-10-08T05:29:51.375Z,8.53
2022-10-08T05:32:18.131Z,8.23
2022-10-08T05:34:44.920Z,8.50
2022-10-08T05:37:11.676Z,8.33
2022-10-08T05:39:38.481Z,8.07
2022-10-08T05:42:05.274Z,8.53
2022-10-08T05:44:36.092Z,8.30
2022-10-08T05:47:04.383Z,8.60
2022-10-08T05:49:31.376Z,8.10
2022-10-08T05:51:58.585Z,8.50
2022-10-08T05:54:25.415Z,9.00
2022-10-08T05:56:52.220Z,8.70
2022-10-08T05:59:21.621Z,8.87
2022-10-08T06:01:49.212Z,9.73
2022-10-08T06:04:18.389Z,9.53
2022-10-08T06:06:45.293Z,9.53
2022-10-08T06:09:15.029Z,10.10
2022-10-08T06:11:42.583Z,9.93
2022-10-08T06:14:11.930Z,10.13
2022-10-08T06:16:39.080Z,10.20
2022-10-08T06:19:07.256Z,9.70
2022-10-08T06:21:35.095Z,10.63
2022-10-08T06:24:05.009Z,11.10
2022-10-08T06:26:36.929Z,10.63
2022-10-08T06:29:05.920Z,11.60
2022-10-08T06:31:34.885Z,11.10
2022-10-08T06:34:04.250Z,11.33
2022-10-08T06:36:32.503Z,11.07
2022-10-08T06:39:08.257Z,11.53
2022-10-08T06:41:35.326Z,11.27
2022-10-08T06:44:03.918Z,11.50
2022-10-08T06:46:33.917Z,11.60
2022-10-08T06:49:01.717Z,11.47
2022-10-08T06:51:29.386Z,11.90
2022-10-08T06:54:02.863Z,11.20
2022-10-08T06:56:35.100Z,11.40
2022-10-08T06:59:02.092Z,11.40
2022-10-08T07:01:33.328Z,11.10
2022-10-08T07:04:01.534Z,11.13
2022-10-08T07:06:28.443Z,11.03
2022-10-08T07:08:57.692Z,10.90
2022-10-08T07:11:25.974Z,10.93
2022-10-08T07:13:55.087Z,10.87
2022-10-08T07:16:23.630Z,10.70
2022-10-08T07:18:52.105Z,9.87
2022-10-08T07:21:21.042Z,10.00
2022-10-08T07:23:47.892Z,9.70
2022-10-08T07:26:17.580Z,10.27
2022-10-08T07:28:52.841Z,9.40
2022-10-08T07:31:22.750Z,9.60
2022-10-08T07:33:50.062Z,9.33
2022-10-08T07:36:22.059Z,9.27
2022-10-08T07:39:00.295Z,9.37
2022-10-08T07:41:28.964Z,9.00
2022-10-08T07:44:00.159Z,8.80
2022-10-08T07:46:28.681Z,8.73
2022-10-08T07:48:58.887Z,8.20
2022-10-08T07:51:26.451Z,9.07
2022-10-08T07:53:53.246Z,8.13
2022-10-08T07:56:21.329Z,7.70
2022-10-08T07:58:49.355Z,8.17
2022-10-08T08:01:19.903Z,7.53
2022-10-08T08:03:52.191Z,7.37
2022-10-08T08:06:19.010Z,7.23
2022-10-08T08:08:45.941Z,6.57
2022-10-08T08:11:15.431Z,6.53
2022-10-08T08:13:43.019Z,6.50
2022-10-08T08:16:12.535Z,6.70
2022-10-08T08:18:41.845Z,5.90
2022-10-08T08:21:14.950Z,5.23
2022-10-08T08:23:44.324Z,5.23
2022-10-08T08:26:13.821Z,5.23
2022-10-08T08:28:41.272Z,4.37
2022-10-08T08:31:10.231Z,4.43
2022-10-08T08:33:37.248Z,4.20
2022-10-08T08:36:04.689Z,4.27
2022-10-08T08:38:34.150Z,4.33
2022-10-08T08:41:32.998Z,3.80
2022-10-08T08:44:02.494Z,3.87
2022-10-08T08:46:33.888Z,3.80
2022-10-08T08:49:06.709Z,3.90
2022-10-08T08:51:34.562Z,3.77
2022-10-08T08:54:01.567Z,3.53
2022-10-08T08:56:29.430Z,3.47
2022-10-08T08:59:26.856Z,3.67
2022-10-08T09:02:00.674Z,3.33
2022-10-08T09:04:38.685Z,3.03
2022-10-08T09:07:14.906Z,2.77
2022-10-08T09:09:48.257Z,2.80
2022-10-08T09:12:31.024Z,3.10
2022-10-08T09:15:01.106Z,2.93
2022-10-08T09:17:38.885Z,2.37
2022-10-08T09:20:06.479Z,3.00
2022-10-08T09:22:40.630Z,2.80
2022-10-08T09:25:15.986Z,2.67
2022-10-08T09:27:49.560Z,2.60
2022-10-08T09:30:46.269Z,2.70
2022-10-08T09:33:13.130Z,2.63
2022-10-08T09:35:51.291Z,2.87
2022-10-08T09:38:32.993Z,2.80
2022-10-08T09:41:05.670Z,2.77
2022-10-08T09:43:34.565Z,2.70
2022-10-08T09:46:11.307Z,2.63
2022-10-08T09:48:39.440Z,2.57
2022-10-08T09:51:14.678Z,2.77
2022-10-08T09:53:45.349Z,2.73
2022-10-08T09:56:15.122Z,2.73
2022-10-08T09:58:58.518Z,2.13
2022-10-08T10:01:26.019Z,2.40
2022-10-08T10:03:58.690Z,2.50
2022-10-08T10:06:37.721Z,2.80
2022-10-08T10:09:30.994Z,2.90
2022-10-08T10:12:03.825Z,2.80
2022-10-08T10:14:43.374Z,2.70
2022-10-08T10:17:43.462Z,2.70
2022-10-08T10:20:25.392Z,2.73
2022-10-08T10:23:12.935Z,2.70
2022-10-08T10:25:51.028Z,3.17
2022-10-08T10:28:56.276Z,3.33
2022-10-08T10:31:31.124Z,3.17
2022-10-08T10:34:10.784Z,3.00
2022-10-08T10:36:43.777Z,3.00
2022-10-08T10:39:31.983Z,3.10
2022-10-08T10:42:14.503Z,3.57
2022-10-08T10:44:53.431Z,3.93
2022-10-08T10:47:30.985Z,3.40
2022-10-08T10:50:01.133Z,3.53
2022-10-08T10:52:46.314Z,3.30
2022-10-08T10:55:22.613Z,3.80
2022-10-08T10:58:07.394Z,3.30
2022-10-08T11:00:44.061Z,3.43
2022-10-08T11:03:52.968Z,3.37
2022-10-08T11:06:28.299Z,3.90
2022-10-08T11:09:14.663Z,4.20
2022-10-08T11:11:50.013Z,5.07
2022-10-08T11:14:36.137Z,3.87
2022-10-08T11:17:13.324Z,3.80
2022-10-08T11:20:19.849Z,4.27
2022-10-08T11:22:52.436Z,3.77
2022-10-08T11:25:50.016Z,3.60
2022-10-08T11:28:51.999Z,3.70
2022-10-08T11:31:36.155Z,3.63
2022-10-08T11:34:04.081Z,4.30
2022-10-08T11:36:43.538Z,3.80
2022-10-08T11:39:20.366Z,3.90
2022-10-08T11:42:15.071Z,4.17
2022-10-08T11:44:42.021Z,4.13
2022-10-08T11:47:40.189Z,4.23
2022-10-08T11:50:24.724Z,5.13
2022-10-08T11:52:53.384Z,5.90
2022-10-08T11:55:30.736Z,6.70
2022-10-08T11:58:08.723Z,4.70
2022-10-08T12:00:42.301Z,6.65
2022-10-08T12:03:47.514Z,5.87
2022-10-08T12:06:30.523Z,6.30
2022-10-08T12:09:04.106Z,6.60
2022-10-08T12:11:37.389Z,6.50
2022-10-08T12:14:13.369Z,8.07
2022-10-08T12:16:49.380Z,6.90
2022-10-08T12:19:34.829Z,6.50
2022-10-08T12:22:14.984Z,7.03
2022-10-08T12:24:48.865Z,11.53
2022-10-08T12:27:16.900Z,6.67
2022-10-08T12:30:03.695Z,7.60
2022-10-08T12:32:53.614Z,6.47
2022-10-08T12:35:30.721Z,5.50
2022-10-08T12:38:15.621Z,5.23
2022-10-08T12:41:04.508Z,5.77
2022-10-08T12:43:35.687Z,5.33
2022-10-08T12:46:49.449Z,4.67
2022-10-08T12:49:27.565Z,4.50
2022-10-08T12:52:14.920Z,4.07
2022-10-08T12:55:03.740Z,4.00
2022-10-08T12:57:38.501Z,3.67
2022-10-08T13:00:19.313Z,3.90
2022-10-08T13:03:02.728Z,3.60
2022-10-08T13:05:31.513Z,3.23
2022-10-08T13:07:59.103Z,3.53
2022-10-08T13:10:29.454Z,3.23
2022-10-08T13:13:04.500Z,3.00
2022-10-08T13:15:33.735Z,2.83
2022-10-08T13:18:11.960Z,3.30
2022-10-08T13:20:38.779Z,2.87
2022-10-08T13:23:32.927Z,3.07
2022-10-08T13:26:00.807Z,3.20
2022-10-08T13:28:58.677Z,3.00
2022-10-08T13:31:23.901Z,2.53
2022-10-08T13:33:51.257Z,3.00
2022-10-08T13:36:23.311Z,2.73
2022-10-08T13:38:50.284Z,2.90
2022-10-08T13:41:23.734Z,2.90
2022-10-08T13:43:50.779Z,2.67
2022-10-08T13:46:17.617Z,2.80
2022-10-08T13:48:45.019Z,2.87
2022-10-08T13:51:12.044Z,2.87
2022-10-08T13:53:42.131Z,2.70
2022-10-08T13:56:09.218Z,2.73
2022-10-08T13:58:35.985Z,2.97
2022-10-08T14:01:02.867Z,3.10
2022-10-08T14:03:29.714Z,2.87
2022-10-08T14:05:56.569Z,2.90
2022-10-08T14:08:29.529Z,2.70
2022-10-08T14:10:59.872Z,2.50
2022-10-08T14:13:27.123Z,2.40
2022-10-08T14:15:54.277Z,2.80
2022-10-08T14:18:21.217Z,2.73
2022-10-08T14:20:51.034Z,3.27
2022-10-08T14:23:19.001Z,2.70
2022-10-08T14:25:46.051Z,2.93
2022-10-08T14:28:12.841Z,3.53
2022-10-08T14:30:39.693Z,3.40
2022-10-08T14:33:10.943Z,4.53
2022-10-08T14:35:38.480Z,3.00
2022-10-08T14:38:05.458Z,2.70
2022-10-08T14:40:32.339Z,2.70
2022-10-08T14:42:59.772Z,2.43
2022-10-08T14:45:26.610Z,2.37
2022-10-08T14:47:53.436Z,2.53
2022-10-08T14:50:20.251Z,2.10
2022-10-08T14:52:47.418Z,2.87
2022-10-08T14:55:14.719Z,2.70
2022-10-08T14:57:41.567Z,2.50
2022-10-08T15:00:08.972Z,3.10
2022-10-08T15:02:38.596Z,2.70
2022-10-08T15:05:06.604Z,2.00
2022-10-08T15:07:33.401Z,2.20
2022-10-08T15:10:00.226Z,2.60
2022-10-08T15:12:26.983Z,2.87
2022-10-08T15:14:53.731Z,3.40
2022-10-08T15:17:20.690Z,2.83
2022-10-08T15:19:47.525Z,2.50
2022-10-08T15:22:14.269Z,2.40
2022-10-08T15:24:41.312Z,2.23
2022-10-08T15:27:08.093Z,2.80
2022-10-08T15:29:36.130Z,3.03
2022-10-08T15:32:03.027Z,3.00
2022-10-08T15:34:29.875Z,2.70
2022-10-08T15:36:56.640Z,3.43
2022-10-08T15:39:23.428Z,3.80
2022-10-08T15:41:51.774Z,3.90
2022-10-08T15:44:30.514Z,3.97
2022-10-08T15:47:05.615Z,3.97
2022-10-08T15:49:33.954Z,3.90
2022-10-08T15:52:01.544Z,3.07
2022-10-08T15:54:28.348Z,2.43
2022-10-08T15:56:55.217Z,2.33
2022-10-08T15:59:21.974Z,2.67
2022-10-08T16:01:48.814Z,2.33
2022-10-08T16:04:15.582Z,2.40
2022-10-08T16:06:46.369Z,2.93
2022-10-08T16:09:15.019Z,3.10
2022-10-08T16:11:42.325Z,4.10
2022-10-08T16:14:14.390Z,4.27
2022-10-08T16:16:41.648Z,3.47
2022-10-08T16:19:12.305Z,4.17
2022-10-08T16:21:39.893Z,3.90
2022-10-08T16:24:06.763Z,3.30
2022-10-08T16:26:35.368Z,3.00
2022-10-08T16:29:05.363Z,3.70
2022-10-08T16:31:34.517Z,3.70
2022-10-08T16:34:12.053Z,3.97
2022-10-08T16:36:39.547Z,4.00
2022-10-08T16:39:07.757Z,3.83
2022-10-08T16:41:35.935Z,4.30
2022-10-08T16:44:12.368Z,4.10
2022-10-08T16:46:48.140Z,4.10
2022-10-08T16:49:23.090Z,4.20
2022-10-08T16:51:53.313Z,4.10
2022-10-08T16:54:20.382Z,4.40
2022-10-08T16:56:47.657Z,3.43
2022-10-08T16:59:23.124Z,6.20
2022-10-08T17:01:54.574Z,5.40
2022-10-08T17:04:23.570Z,7.10
2022-10-08T17:06:50.947Z,6.90
2022-10-08T17:09:18.038Z,5.83
2022-10-08T17:11:45.061Z,5.10
2022-10-08T17:14:12.456Z,4.70
2022-10-08T17:16:40.254Z,6.03
2022-10-08T17:19:07.143Z,6.40
2022-10-08T17:21:35.274Z,7.27
2022-10-08T17:24:02.775Z,7.33
2022-10-08T17:26:31.394Z,8.20
2022-10-08T17:29:03.246Z,9.00
2022-10-08T17:31:31.700Z,10.00
2022-10-08T17:34:02.269Z,8.60
2022-10-08T17:36:31.530Z,8.07
2022-10-08T17:39:00.972Z,7.23
2022-10-08T17:41:30.533Z,6.30
2022-10-08T17:43:59.684Z,5.23
2022-10-08T17:46:35.227Z,5.90
2022-10-08T17:49:02.274Z,5.77
2022-10-08T17:51:30.271Z,6.53
2022-10-08T17:53:59.511Z,7.33
2022-10-08T17:56:26.796Z,6.90
2022-10-08T17:58:53.858Z,7.83
2022-10-08T18:01:29.504Z,9.90
2022-10-08T18:04:02.327Z,13.07
2022-10-08T18:06:30.361Z,9.13
2022-10-08T18:09:05.450Z,8.13
2022-10-08T18:11:34.636Z,7.47
2022-10-08T18:14:02.887Z,7.60
2022-10-08T18:16:29.672Z,5.90
2022-10-08T18:18:56.663Z,6.07
2022-10-08T18:21:23.548Z,5.70
2022-10-08T18:23:50.929Z,6.40
2022-10-08T18:26:19.065Z,5.73
2022-10-08T18:28:51.041Z,4.90
2022-10-08T18:31:19.554Z,4.70
2022-10-08T18:33:47.928Z,4.80
2022-10-08T18:36:20.223Z,5.73
2022-10-08T18:38:48.672Z,5.30
2022-10-08T18:41:20.906Z,4.73
2022-10-08T18:43:49.158Z,5.13
2022-10-08T18:46:18.372Z,5.40
2022-10-08T18:48:45.694Z,6.20
2022-10-08T18:51:18.691Z,5.63
2022-10-08T18:53:46.345Z,5.97
2022-10-08T18:56:28.893Z,5.70
2022-10-08T18:59:01.800Z,6.00
2022-10-08T19:01:35.159Z,5.93
2022-10-08T19:04:04.316Z,6.37
2022-10-08T19:06:34.064Z,6.30
2022-10-08T19:09:01.511Z,6.63
2022-10-08T19:11:33.633Z,8.60
2022-10-08T19:14:01.884Z,8.83
2022-10-08T19:16:29.874Z,7.93
2022-10-08T19:18:59.468Z,7.20
2022-10-08T19:21:27.137Z,6.03
2022-10-08T19:23:54.385Z,5.77
2022-10-08T19:26:21.204Z,6.27
2022-10-08T19:28:50.342Z,5.80
2022-10-08T19:31:23.187Z,5.50
2022-10-08T19:33:54.472Z,5.87
2022-10-08T19:36:22.220Z,5.53
2022-10-08T19:38:53.389Z,6.20
2022-10-08T19:41:20.347Z,6.43
2022-10-08T19:43:47.194Z,6.40
2022-10-08T19:46:14.181Z,5.50
2022-10-08T19:48:41.119Z,5.50
2022-10-08T19:51:11.716Z,5.20
2022-10-08T19:53:38.923Z,5.20
2022-10-08T19:56:10.582Z,5.20
2022-10-08T19:58:38.789Z,5.33
2022-10-08T20:01:09.694Z,5.33
2022-10-08T20:03:37.943Z,5.37
2022-10-08T20:06:07.941Z,5.03
2022-10-08T20:08:35.764Z,5.53
2022-10-08T20:11:04.213Z,10.90
2022-10-08T20:13:31.354Z,13.80
2022-10-08T20:16:09.741Z,16.53
2022-10-08T20:18:36.848Z,16.00
2022-10-08T20:21:06.434Z,16.33
2022-10-08T20:23:33.969Z,8.70
2022-10-08T20:26:19.561Z,7.00
2022-10-08T20:28:49.923Z,6.50
2022-10-08T20:31:28.367Z,6.23
2022-10-08T20:34:00.643Z,6.50
2022-10-08T20:36:28.107Z,5.27
2022-10-08T20:38:55.002Z,5.03
2022-10-08T20:41:25.463Z,4.80
2022-10-08T20:44:00.190Z,4.73
2022-10-08T20:46:27.190Z,4.70
2022-10-08T20:48:54.144Z,4.43
2022-10-08T20:51:23.201Z,4.47
2022-10-08T20:53:55.614Z,4.00
2022-10-08T20:56:23.206Z,4.60
2022-10-08T20:58:50.577Z,4.50
2022-10-08T21:01:25.139Z,4.93
2022-10-08T21:03:52.887Z,4.63
2022-10-08T21:06:25.085Z,4.37
2022-10-08T21:08:55.032Z,4.67
2022-10-08T21:11:24.689Z,4.90
2022-10-08T21:13:51.592Z,4.47
2022-10-08T21:16:23.428Z,4.73
2022-10-08T21:18:52.167Z,4.30
2022-10-08T21:21:19.878Z,4.60
2022-10-08T21:23:48.990Z,4.80
2022-10-08T21:26:16.942Z,5.37
2022-10-08T21:28:45.808Z,5.43
2022-10-08T21:31:13.922Z,4.70
2022-10-08T21:33:46.075Z,4.80
2022-10-08T21:36:18.617Z,4.50
2022-10-08T21:38:45.688Z,4.53
2022-10-08T21:41:15.576Z,4.27
2022-10-08T21:43:47.780Z,4.57
2022-10-08T21:46:17.829Z,4.40
2022-10-08T21:48:45.147Z,3.70
2022-10-08T21:51:17.635Z,4.27
2022-10-08T21:53:46.727Z,4.40
2022-10-08T21:56:16.201Z,5.00
2022-10-08T21:58:45.481Z,4.03
2022-10-08T22:01:38.748Z,4.07
2022-10-08T22:04:20.449Z,3.93
2022-10-08T22:06:50.061Z,3.80
2022-10-08T22:09:23.035Z,4.17
2022-10-08T22:11:51.128Z,4.17
2022-10-08T22:14:18.911Z,3.90
2022-10-08T22:16:46.523Z,4.00
2022-10-08T22:19:14.204Z,4.03
2022-10-08T22:21:41.518Z,3.73
2022-10-08T22:24:08.566Z,3.80
2022-10-08T22:26:41.363Z,3.70
2022-10-08T22:29:08.545Z,4.13
2022-10-08T22:31:36.332Z,3.80
2022-10-08T22:34:03.306Z,3.77
2022-10-08T22:36:32.050Z,4.37
2022-10-08T22:38:59.513Z,3.57
2022-10-08T22:41:31.212Z,3.97
2022-10-08T22:43:58.960Z,3.60
2022-10-08T22:46:28.922Z,3.70
2022-10-08T22:49:00.577Z,3.80
2022-10-08T22:51:28.530Z,3.80
2022-10-08T22:53:55.670Z,3.57
2022-10-08T22:56:25.748Z,3.60
2022-10-08T22:58:53.008Z,3.70
2022-10-08T23:01:22.624Z,3.70
2022-10-08T23:03:50.055Z,3.70
2022-10-08T23:06:25.315Z,3.63
2022-10-08T23:08:55.456Z,4.13
2022-10-08T23:11:22.615Z,3.57
2022-10-08T23:13:54.263Z,3.60
2022-10-08T23:16:21.335Z,4.10
2022-10-08T23:18:56.501Z,3.60
2022-10-08T23:21:24.144Z,3.60
2022-10-08T23:23:52.176Z,3.50
2022-10-08T23:26:19.301Z,3.40
2022-10-08T23:28:51.297Z,3.97
2022-10-08T23:31:20.823Z,3.70
2022-10-08T23:33:49.844Z,3.90
2022-10-08T23:36:19.270Z,3.80
2022-10-08T23:38:46.862Z,3.97
2022-10-08T23:41:14.106Z,4.00
2022-10-08T23:43:43.549Z,4.00
2022-10-08T23:46:12.109Z,3.97
2022-10-08T23:48:39.760Z,4.30
2022-10-08T23:51:08.035Z,4.63
2022-10-08T23:53:35.820Z,4.57
2022-10-08T23:56:02.658Z,4.67
2022-10-08T23:58:29.755Z,4.37
